Airport Name : Norwich

Other Name : Norwich

ICAO : EGSH

IATA : NWI

FAA :

Latitude : 52.675833

Longitude : 1.282778

Country : United Kingdom

Local Date and Time : 4/26/2018 5:03:00 AM

 

TAF (Terminal Aerodrome Forecast)

TAF EGSH 260157Z 2603/2612 26012KT 9999 SCT030 PROB30 TEMPO 2606/2612 26015G28KT 7000 SHRA

 

METAR (METeorological Aerodrome Report)

EGSH 260350Z AUTO 25012KT 9999 NCD 06/05 Q1012

EGSH 260320Z AUTO 25012KT 9999 NCD 06/05 Q1012

EGSH 260250Z AUTO 25011KT 9999 NCD 06/05 Q1011

EGSH 260220Z AUTO 25012KT 9999 NCD 06/05 Q1011

EGSH 260150Z AUTO 25011KT 9999 NCD 06/05 Q1011

EGSH 260120Z AUTO 25010KT 9999 NCD 06/05 Q1011

EGSH 260050Z AUTO 25011KT 9999 NCD 07/05 Q1011

EGSH 260020Z AUTO 25012KT 9999 NCD 07/05 Q1011